createdAt,value
2018-06-08T14:22:13.300Z,8.07
2018-06-08T14:26:16.932Z,8.17
2018-06-08T14:30:20.628Z,8.00
2018-06-08T14:34:24.291Z,8.60
2018-06-08T14:38:27.971Z,8.80
2018-06-08T14:42:31.624Z,9.50
2018-06-08T14:46:35.297Z,9.23
2018-06-08T14:50:39.034Z,10.17
2018-06-08T14:54:43.107Z,10.43
2018-06-08T14:58:46.801Z,10.50
2018-06-08T15:02:50.493Z,10.33
2018-06-08T15:06:54.164Z,9.70
2018-06-08T15:10:57.831Z,9.93
2018-06-08T15:15:01.155Z,10.37
2018-06-08T15:19:04.850Z,9.50
2018-06-08T15:23:08.524Z,10.53
2018-06-08T15:27:12.145Z,10.97
2018-06-08T15:31:15.817Z,11.07
2018-06-08T15:35:19.477Z,11.07
2018-06-08T15:39:23.143Z,10.77
2018-06-08T15:43:26.842Z,11.40
2018-06-08T15:47:30.573Z,11.30
2018-06-08T15:51:34.195Z,10.73
2018-06-08T15:55:37.893Z,11.73
2018-06-08T15:59:41.544Z,11.37
2018-06-08T16:03:45.228Z,11.70
2018-06-08T16:07:48.957Z,12.10
2018-06-08T16:11:52.593Z,12.83
2018-06-08T16:15:56.253Z,13.40
2018-06-08T16:19:59.925Z,12.87
2018-06-08T16:24:03.575Z,13.93
2018-06-08T16:28:07.238Z,14.03
2018-06-08T16:32:10.858Z,13.93
2018-06-08T16:36:14.602Z,15.17
2018-06-08T16:40:18.267Z,14.97
2018-06-08T16:44:21.990Z,14.37
2018-06-08T16:48:25.681Z,16.10
2018-06-08T16:52:29.635Z,17.37
2018-06-08T16:56:33.314Z,17.13
2018-06-08T17:00:37.088Z,17.03
2018-06-08T17:04:40.755Z,16.63
2018-06-08T17:08:44.472Z,16.93
2018-06-08T17:12:48.079Z,16.90
2018-06-08T17:16:51.745Z,17.33
2018-06-08T17:20:55.400Z,17.20
2018-06-08T17:24:59.057Z,18.00
2018-06-08T17:29:02.701Z,17.40
2018-06-08T17:33:06.368Z,16.70
2018-06-08T17:37:10.030Z,17.73
2018-06-08T17:41:13.679Z,16.13
2018-06-08T17:45:17.360Z,16.50
2018-06-08T17:49:21.002Z,15.47
2018-06-08T17:53:24.659Z,16.20
2018-06-08T17:57:28.315Z,15.93
2018-06-08T18:01:31.976Z,14.17
2018-06-08T18:05:35.659Z,16.73
2018-06-08T18:09:39.350Z,17.47
2018-06-08T18:13:43.053Z,16.30
2018-06-08T18:17:46.789Z,16.33
2018-06-08T18:21:50.471Z,15.90
2018-06-08T18:25:54.181Z,14.97
2018-06-08T18:29:57.838Z,15.43
2018-06-08T18:34:01.520Z,15.47
2018-06-08T18:38:05.397Z,15.53
2018-06-08T18:42:09.055Z,15.90
2018-06-08T18:46:12.741Z,15.30
2018-06-08T18:50:16.375Z,16.23
2018-06-08T18:54:20.069Z,15.90
2018-06-08T18:58:23.755Z,15.30
2018-06-08T19:02:27.424Z,15.20
2018-06-08T19:06:31.133Z,15.87
2018-06-08T19:10:34.858Z,15.03
2018-06-08T19:14:38.705Z,13.20
2018-06-08T19:18:42.366Z,12.97
2018-06-08T19:22:46.042Z,12.80
2018-06-08T19:26:49.728Z,12.60
2018-06-08T19:30:53.390Z,11.43
2018-06-08T19:34:57.068Z,10.77
2018-06-08T19:39:00.753Z,10.23
2018-06-08T19:43:04.447Z,8.43
2018-06-08T19:47:08.135Z,8.70
2018-06-08T19:51:11.788Z,7.77
2018-06-08T19:55:15.462Z,7.40
2018-06-08T19:59:19.133Z,7.07
2018-06-08T20:03:22.792Z,6.20
2018-06-08T20:07:26.500Z,5.80
2018-06-08T20:11:30.156Z,6.23
2018-06-08T20:15:33.837Z,5.37
2018-06-08T20:19:37.522Z,4.70
2018-06-08T20:23:41.202Z,5.10
2018-06-08T20:27:44.876Z,4.53
2018-06-08T20:31:48.504Z,4.10
2018-06-08T20:35:52.165Z,3.93
2018-06-08T20:39:55.919Z,3.80
2018-06-08T20:43:59.600Z,3.50
2018-06-08T20:48:03.413Z,3.03
2018-06-08T20:52:07.059Z,3.03
2018-06-08T20:56:10.782Z,3.20
2018-06-08T21:00:14.454Z,3.20
2018-06-08T21:04:18.128Z,2.90
2018-06-08T21:08:21.832Z,3.20
2018-06-08T21:12:25.446Z,3.00
2018-06-08T21:16:29.109Z,2.93
2018-06-08T21:20:32.898Z,2.80
2018-06-08T21:24:36.555Z,2.87
2018-06-08T21:28:40.318Z,3.40
2018-06-08T21:32:43.923Z,2.97
2018-06-08T21:36:47.593Z,3.30
2018-06-08T21:40:51.266Z,3.03
2018-06-08T21:44:54.939Z,2.90
2018-06-08T21:48:58.660Z,2.90
2018-06-08T21:53:02.279Z,3.30
2018-06-08T21:57:06.089Z,3.33
2018-06-08T22:01:10.110Z,3.33
2018-06-08T22:05:13.804Z,3.13
2018-06-08T22:09:18.607Z,3.30
2018-06-08T22:13:22.232Z,3.17
2018-06-08T22:17:25.906Z,2.50
2018-06-08T22:21:29.604Z,2.93
2018-06-08T22:25:33.280Z,2.50
2018-06-08T22:29:36.931Z,3.00
2018-06-08T22:33:40.619Z,3.10
2018-06-08T22:37:44.320Z,2.80
2018-06-08T22:41:47.987Z,2.80
2018-06-08T22:45:51.748Z,2.80
2018-06-08T22:49:55.397Z,3.30
2018-06-08T22:53:59.036Z,2.77
2018-06-08T22:58:02.972Z,2.33
2018-06-08T23:02:06.683Z,2.70
2018-06-08T23:06:10.391Z,2.57
2018-06-08T23:10:14.064Z,3.10
2018-06-08T23:14:17.678Z,2.90
2018-06-08T23:18:21.334Z,2.60
2018-06-08T23:22:24.990Z,2.67
2018-06-08T23:26:28.322Z,2.70
2018-06-08T23:30:32.000Z,3.33
2018-06-08T23:34:35.627Z,3.50
2018-06-08T23:38:39.300Z,3.33
2018-06-08T23:42:42.947Z,3.07
2018-06-08T23:46:46.598Z,3.57
2018-06-08T23:50:50.269Z,3.07
2018-06-08T23:54:53.879Z,3.43
2018-06-08T23:58:57.539Z,3.67
